Time;durP1;ratioP1;P1;durP2;ratioP2;P2;SDS_P1;SDS_P2;PMS_P1;PMS_P2;Temp;Humidity;BMP_temperature;BMP_pressure;BME280_temperature;BME280_humidity;BME280_pressure;Samples;Min_cycle;Max_cycle;Signal;HPM_P1;HPM_P2
2024/02/29 00:00:07;;;;;;;19.67;8.30;;;0.70;99.90;;;;;;5029350;28;20180;-57
2024/02/29 00:02:33;;;;;;;32.87;9.00;;;0.70;99.90;;;;;;5029349;28;20580;-58
2024/02/29 00:04:59;;;;;;;21.53;8.70;;;0.70;99.90;;;;;;5045671;28;20190;-56
2024/02/29 00:07:24;;;;;;;20.63;8.60;;;0.60;99.90;;;;;;5033420;28;20191;-59
2024/02/29 00:09:50;;;;;;;20.97;8.83;;;0.50;99.90;;;;;;5037401;28;20265;-56
2024/02/29 00:12:15;;;;;;;23.33;9.67;;;0.60;99.90;;;;;;5051519;28;20223;-58
2024/02/29 00:14:42;;;;;;;25.10;9.80;;;0.40;99.90;;;;;;5046772;28;20184;-58
2024/02/29 00:17:08;;;;;;;24.20;9.20;;;0.40;99.90;;;;;;5033370;28;20194;-58
2024/02/29 00:19:33;;;;;;;20.40;8.70;;;0.50;99.90;;;;;;5044529;28;20630;-57
2024/02/29 00:21:59;;;;;;;21.37;8.60;;;0.50;99.90;;;;;;5043864;28;20203;-54
2024/02/29 00:24:25;;;;;;;20.53;8.97;;;0.50;99.90;;;;;;5040739;28;20275;-57
2024/02/29 00:26:50;;;;;;;25.13;10.53;;;0.50;99.90;;;;;;5032432;28;20183;-58
2024/02/29 00:29:16;;;;;;;27.00;10.33;;;0.40;99.90;;;;;;5040156;28;20227;-59
2024/02/29 00:31:43;;;;;;;27.53;10.53;;;0.40;99.90;;;;;;5040680;28;20216;-59
2024/02/29 00:34:10;;;;;;;23.20;10.07;;;0.30;99.90;;;;;;5040687;28;20210;-59
2024/02/29 00:36:35;;;;;;;22.07;9.07;;;0.30;99.90;;;;;;5037348;28;20218;-59
2024/02/29 00:39:01;;;;;;;22.83;9.30;;;0.30;99.90;;;;;;5043248;28;20211;-59
2024/02/29 00:41:27;;;;;;;22.33;9.60;;;0.30;99.90;;;;;;5040339;28;20671;-58
2024/02/29 00:43:52;;;;;;;25.37;10.03;;;0.20;99.90;;;;;;5040329;28;20346;-57
2024/02/29 00:46:18;;;;;;;28.07;9.67;;;0.20;99.90;;;;;;5034819;28;20190;-56
2024/02/29 00:48:44;;;;;;;28.47;10.27;;;0.10;99.90;;;;;;5043137;28;20187;-59
2024/02/29 00:51:09;;;;;;;23.03;9.37;;;0.20;99.90;;;;;;5035294;28;20188;-58
2024/02/29 00:53:35;;;;;;;21.90;9.70;;;0.10;99.90;;;;;;5046890;28;20744;-57
2024/02/29 00:56:00;;;;;;;28.00;10.83;;;0.10;99.90;;;;;;5039877;28;20195;-58
2024/02/29 00:58:26;;;;;;;23.00;9.90;;;0.00;99.90;;;;;;5031731;28;20187;-59
2024/02/29 01:00:52;;;;;;;29.73;10.77;;;0.10;99.90;;;;;;5047543;28;20175;-59
2024/02/29 01:03:17;;;;;;;23.00;9.93;;;0.00;99.90;;;;;;5043468;28;20572;-58
2024/02/29 01:05:43;;;;;;;21.47;9.67;;;0.10;99.90;;;;;;5037273;28;20190;-55
2024/02/29 01:08:08;;;;;;;21.67;8.77;;;0.10;99.90;;;;;;5039093;28;20548;-57
2024/02/29 01:10:34;;;;;;;21.57;9.40;;;0.00;99.90;;;;;;5039907;28;20186;-58
2024/02/29 01:12:59;;;;;;;24.33;10.00;;;0.00;99.90;;;;;;5039661;28;20293;-59
2024/02/29 01:15:25;;;;;;;22.73;10.33;;;0.00;99.90;;;;;;5043408;28;20175;-57
2024/02/29 01:17:51;;;;;;;35.73;10.93;;;-0.10;99.90;;;;;;5043648;28;20326;-58
2024/02/29 01:20:16;;;;;;;28.40;10.97;;;-0.10;99.90;;;;;;5038924;28;20188;-55
2024/02/29 01:22:42;;;;;;;30.60;10.87;;;-0.10;99.90;;;;;;5031192;28;20229;-57
2024/02/29 01:25:08;;;;;;;29.07;10.83;;;0.00;99.90;;;;;;5039794;28;20228;-55
2024/02/29 01:27:34;;;;;;;26.50;10.40;;;-0.10;99.90;;;;;;5030757;28;20187;-57
2024/02/29 01:29:59;;;;;;;23.63;10.53;;;-0.10;99.90;;;;;;5031094;28;20550;-57
2024/02/29 01:32:25;;;;;;;25.03;9.40;;;-0.10;99.90;;;;;;5047466;28;20212;-58
2024/02/29 01:34:50;;;;;;;25.57;10.23;;;-0.10;99.90;;;;;;5031427;28;20184;-58
2024/02/29 01:37:16;;;;;;;22.73;9.27;;;-0.30;99.90;;;;;;5049162;28;20179;-59
2024/02/29 01:39:41;;;;;;;26.77;9.63;;;-0.30;99.90;;;;;;5042642;28;20187;-56
2024/02/29 01:42:07;;;;;;;26.27;10.10;;;-0.40;99.90;;;;;;5041499;28;20286;-54
2024/02/29 01:44:35;;;;;;;25.53;10.50;;;-0.40;99.90;;;;;;5043943;28;20256;-54
2024/02/29 01:47:01;;;;;;;20.77;9.27;;;-0.40;99.90;;;;;;5041966;28;20251;-56
2024/02/29 01:49:27;;;;;;;24.80;9.70;;;-0.40;99.90;;;;;;5039162;28;20188;-57
2024/02/29 01:51:54;;;;;;;23.17;10.03;;;-0.40;99.90;;;;;;5030803;28;20258;-56
2024/02/29 01:54:19;;;;;;;26.87;9.77;;;-0.30;99.90;;;;;;5030442;28;20184;-55
2024/02/29 01:56:45;;;;;;;21.53;9.53;;;-0.30;99.90;;;;;;5039101;28;20187;-56
2024/02/29 01:59:13;;;;;;;23.40;9.90;;;-0.30;99.90;;;;;;5038322;28;20266;-58
2024/02/29 02:01:39;;;;;;;22.67;9.50;;;-0.40;99.90;;;;;;5035994;28;20223;-54
2024/02/29 02:04:04;;;;;;;22.63;10.13;;;-0.50;99.90;;;;;;5033615;28;20206;-56
2024/02/29 02:06:30;;;;;;;22.47;10.27;;;-0.40;99.90;;;;;;5030375;28;20184;-55
2024/02/29 02:08:56;;;;;;;24.67;9.83;;;-0.50;99.90;;;;;;5038217;28;20183;-53
2024/02/29 02:11:22;;;;;;;25.33;9.90;;;-0.50;99.90;;;;;;5030575;28;20230;-58
2024/02/29 02:13:47;;;;;;;24.83;9.13;;;-0.40;99.90;;;;;;5030314;28;20703;-58
2024/02/29 02:16:13;;;;;;;21.83;9.40;;;-0.40;99.90;;;;;;5038401;28;20253;-56
2024/02/29 02:18:38;;;;;;;28.67;9.97;;;-0.40;99.90;;;;;;5038198;28;20211;-58
2024/02/29 02:21:04;;;;;;;26.20;10.27;;;-0.50;99.90;;;;;;5038466;28;20217;-55
2024/02/29 02:23:30;;;;;;;25.40;10.00;;;-0.50;99.90;;;;;;5042384;28;20206;-59
2024/02/29 02:25:58;;;;;;;26.93;10.63;;;-0.60;99.90;;;;;;5041988;28;20183;-57
2024/02/29 02:28:28;;;;;;;31.20;11.67;;;-0.50;99.90;;;;;;5033144;28;20678;-59
2024/02/29 02:30:54;;;;;;;25.50;10.60;;;-0.60;99.90;;;;;;5025076;28;20275;-58
2024/02/29 02:33:20;;;;;;;27.13;10.50;;;-0.50;99.90;;;;;;5038143;28;20780;-55
2024/02/29 02:35:46;;;;;;;26.53;10.00;;;-0.60;99.90;;;;;;5036201;28;20174;-58
2024/02/29 02:38:12;;;;;;;28.73;11.07;;;-0.60;99.90;;;;;;5049293;28;20270;-58
2024/02/29 02:40:37;;;;;;;25.50;10.17;;;-0.70;99.90;;;;;;5041769;28;20258;-57
2024/02/29 02:43:03;;;;;;;27.97;10.70;;;-0.80;99.90;;;;;;5049133;28;20293;-57
2024/02/29 02:45:29;;;;;;;26.43;10.30;;;-0.90;99.90;;;;;;5034161;28;20191;-56
2024/02/29 02:47:55;;;;;;;26.73;11.07;;;-0.80;99.90;;;;;;5033622;28;20188;-59
2024/02/29 02:50:20;;;;;;;26.17;10.17;;;-0.80;99.90;;;;;;5040740;28;20241;-55
2024/02/29 02:52:46;;;;;;;30.13;10.50;;;-0.80;99.90;;;;;;5034980;28;20214;-58
2024/02/29 02:55:12;;;;;;;25.13;10.77;;;-0.70;99.90;;;;;;5038133;28;20187;-56
2024/02/29 02:57:38;;;;;;;22.93;10.63;;;-0.70;99.90;;;;;;5034525;28;20210;-58
2024/02/29 03:00:05;;;;;;;30.00;11.33;;;-0.70;99.90;;;;;;5049217;28;20207;-58
2024/02/29 03:02:30;;;;;;;27.13;10.83;;;-0.80;99.90;;;;;;5029782;28;20235;-58
2024/02/29 03:04:56;;;;;;;28.40;11.17;;;-0.90;99.90;;;;;;5029659;28;20210;-58
2024/02/29 03:07:22;;;;;;;27.97;11.50;;;-0.80;99.90;;;;;;5040036;28;20186;-57
2024/02/29 03:09:47;;;;;;;26.50;11.20;;;-0.80;99.90;;;;;;5034694;28;20187;-58
2024/02/29 03:12:15;;;;;;;30.90;12.00;;;-0.80;99.90;;;;;;5029340;28;20220;-59
2024/02/29 03:14:41;;;;;;;28.37;10.67;;;-0.80;99.90;;;;;;5029582;28;20183;-56
2024/02/29 03:17:06;;;;;;;24.30;10.20;;;-0.90;99.90;;;;;;5029675;28;20172;-58
2024/02/29 03:19:32;;;;;;;29.63;10.50;;;-0.90;99.90;;;;;;5036815;28;20182;-58
2024/02/29 03:21:57;;;;;;;26.13;10.67;;;-0.90;99.90;;;;;;5029255;28;20204;-55
2024/02/29 03:24:23;;;;;;;30.87;11.00;;;-0.90;99.90;;;;;;5048965;28;20232;-59
2024/02/29 03:26:48;;;;;;;22.13;10.40;;;-0.90;99.90;;;;;;5034315;28;20176;-57
2024/02/29 03:29:14;;;;;;;28.23;10.47;;;-0.90;99.90;;;;;;5037056;28;20194;-55
2024/02/29 03:31:44;;;;;;;23.77;9.97;;;-1.00;99.90;;;;;;5034650;28;20214;-57
2024/02/29 03:34:10;;;;;;;24.57;10.00;;;-1.10;99.90;;;;;;5039413;28;20179;-56
2024/02/29 03:36:35;;;;;;;20.67;8.80;;;-1.20;99.90;;;;;;5029190;28;20178;-57
2024/02/29 03:39:01;;;;;;;26.93;9.87;;;-1.10;99.90;;;;;;5035974;28;20211;-55
2024/02/29 03:41:26;;;;;;;25.03;9.80;;;-1.10;99.90;;;;;;5029354;28;20200;-59
2024/02/29 03:43:52;;;;;;;26.23;9.50;;;-1.20;99.90;;;;;;5014790;28;20223;-55
2024/02/29 03:46:18;;;;;;;24.20;10.03;;;-1.10;99.90;;;;;;5041152;28;20192;-56
2024/02/29 03:48:43;;;;;;;22.57;9.53;;;-1.20;99.90;;;;;;5023318;28;20191;-57
2024/02/29 03:51:09;;;;;;;29.17;9.90;;;-1.20;99.90;;;;;;5033032;28;20180;-58
2024/02/29 03:53:34;;;;;;;26.43;10.13;;;-1.20;99.90;;;;;;5033045;28;20219;-56
2024/02/29 03:56:00;;;;;;;21.97;9.30;;;-1.20;99.90;;;;;;5041142;28;20194;-57
2024/02/29 03:58:26;;;;;;;22.30;10.00;;;-1.20;99.90;;;;;;5036065;28;20177;-56
2024/02/29 04:00:51;;;;;;;27.87;10.30;;;-1.20;99.90;;;;;;5046277;28;20258;-57
2024/02/29 04:03:17;;;;;;;28.03;10.40;;;-1.20;99.90;;;;;;5041206;28;20212;-55
2024/02/29 04:05:43;;;;;;;24.37;10.60;;;-1.10;99.90;;;;;;5040995;28;20636;-56
2024/02/29 04:08:12;;;;;;;27.53;10.87;;;-1.20;99.90;;;;;;5031606;28;20558;-54
2024/02/29 04:10:38;;;;;;;32.33;11.27;;;-1.20;99.90;;;;;;5037819;28;20192;-53
2024/02/29 04:13:05;;;;;;;25.90;10.47;;;-1.20;99.90;;;;;;5044194;28;20207;-56
2024/02/29 04:15:31;;;;;;;26.70;10.70;;;;;;;;;;5040182;28;20671;-55
2024/02/29 04:17:56;;;;;;;26.07;10.80;;;-1.20;99.90;;;;;;5047882;28;20172;-56
2024/02/29 04:20:22;;;;;;;28.83;10.97;;;;;;;;;;5052341;28;20558;-55
2024/02/29 04:22:48;;;;;;;32.40;10.87;;;-1.10;99.90;;;;;;5052229;28;20203;-58
2024/02/29 04:25:16;;;;;;;30.20;11.07;;;-1.00;99.90;;;;;;5016180;28;20689;-56
2024/02/29 04:27:42;;;;;;;32.53;10.97;;;;;;;;;;5045663;28;20175;-55
2024/02/29 04:30:09;;;;;;;31.50;12.13;;;-1.00;99.90;;;;;;5025378;28;20278;-57
2024/02/29 04:32:37;;;;;;;33.97;12.00;;;-1.10;99.90;;;;;;5040331;28;20218;-56
2024/02/29 04:35:03;;;;;;;31.67;11.67;;;-1.10;99.90;;;;;;5040345;28;20648;-54
2024/02/29 04:37:29;;;;;;;31.77;12.43;;;-1.10;99.90;;;;;;5035454;28;20284;-55
2024/02/29 04:39:55;;;;;;;34.77;11.40;;;-1.10;99.90;;;;;;5044051;28;20282;-58
2024/02/29 04:42:20;;;;;;;30.77;11.00;;;-1.00;99.90;;;;;;5032650;28;20215;-55
2024/02/29 04:44:46;;;;;;;27.83;11.67;;;-1.10;99.90;;;;;;5040253;28;20231;-55
2024/02/29 04:47:11;;;;;;;25.43;11.37;;;-1.10;99.90;;;;;;5039632;28;20191;-54
2024/02/29 04:49:37;;;;;;;27.77;10.27;;;-1.20;99.90;;;;;;5032135;28;20194;-55
2024/02/29 04:52:03;;;;;;;26.87;10.97;;;-1.20;99.90;;;;;;5040033;28;20225;-56
2024/02/29 04:54:28;;;;;;;27.80;10.33;;;-1.20;99.90;;;;;;5034677;28;20215;-59
2024/02/29 04:56:54;;;;;;;23.53;10.37;;;-1.20;99.90;;;;;;5042981;28;20266;-57
2024/02/29 04:59:20;;;;;;;20.90;8.83;;;-1.20;99.90;;;;;;5040432;28;20194;-57
2024/02/29 05:01:45;;;;;;;25.23;9.57;;;-1.10;99.90;;;;;;5031662;28;20242;-54
2024/02/29 05:04:11;;;;;;;26.80;11.30;;;-1.20;99.90;;;;;;5032827;28;20192;-57
2024/02/29 05:06:36;;;;;;;28.63;11.40;;;-1.10;99.90;;;;;;5038384;28;20274;-58
2024/02/29 05:09:02;;;;;;;24.03;11.00;;;-1.10;99.90;;;;;;5031203;28;20253;-55
2024/02/29 05:11:29;;;;;;;23.87;10.37;;;-1.10;99.90;;;;;;5039954;28;20219;-55
2024/02/29 05:13:54;;;;;;;24.53;10.37;;;-1.00;99.90;;;;;;5031520;28;20200;-58
2024/02/29 05:16:20;;;;;;;28.07;11.90;;;-1.00;99.90;;;;;;5047254;28;20194;-57
2024/02/29 05:18:46;;;;;;;27.13;11.87;;;-1.10;99.90;;;;;;5031283;28;20190;-58
2024/02/29 05:21:13;;;;;;;32.70;11.80;;;-1.10;99.90;;;;;;5031476;28;20192;-57
2024/02/29 05:23:38;;;;;;;28.17;11.13;;;-1.10;99.90;;;;;;5036575;28;20234;-55
2024/02/29 05:26:04;;;;;;;30.70;12.10;;;-1.10;99.90;;;;;;5042428;28;20451;-56
2024/02/29 05:28:30;;;;;;;30.37;11.57;;;-1.00;99.90;;;;;;5030705;28;20690;-56
2024/02/29 05:30:56;;;;;;;27.93;12.20;;;-1.00;99.90;;;;;;5031144;28;20179;-58
2024/02/29 05:33:22;;;;;;;31.43;12.07;;;-1.00;99.90;;;;;;5030846;28;20299;-56
2024/02/29 05:35:50;;;;;;;30.70;12.67;;;-1.00;99.90;;;;;;5031121;28;20188;-55
2024/02/29 05:38:17;;;;;;;30.57;14.13;;;-1.00;99.90;;;;;;5032330;28;20183;-55
2024/02/29 05:40:43;;;;;;;31.97;13.67;;;-1.00;99.90;;;;;;5045472;28;20180;-56
2024/02/29 05:43:09;;;;;;;38.83;14.23;;;-1.00;99.90;;;;;;5039831;28;20457;-54
2024/02/29 05:45:34;;;;;;;33.50;14.30;;;-0.90;99.90;;;;;;5044105;28;20566;-57
2024/02/29 05:48:00;;;;;;;30.83;14.30;;;-0.90;99.90;;;;;;5030530;28;20187;-56
2024/02/29 05:50:26;;;;;;;29.57;13.93;;;-0.90;99.90;;;;;;5039199;28;20172;-57
2024/02/29 05:52:52;;;;;;;29.43;13.30;;;-0.90;99.90;;;;;;5031493;28;20254;-57
2024/02/29 05:55:17;;;;;;;30.43;13.43;;;-0.90;99.90;;;;;;5040216;28;20222;-59
2024/02/29 05:57:43;;;;;;;31.13;13.23;;;-0.90;99.90;;;;;;5038286;28;20187;-56
2024/02/29 06:00:10;;;;;;;25.70;12.27;;;-0.90;99.90;;;;;;5042212;28;20195;-57
2024/02/29 06:02:36;;;;;;;24.87;11.03;;;-0.90;99.90;;;;;;5038688;28;20206;-53
2024/02/29 06:05:01;;;;;;;26.77;11.87;;;-0.90;99.90;;;;;;5038744;28;20171;-59
2024/02/29 06:07:27;;;;;;;28.17;11.33;;;-0.90;99.90;;;;;;5030006;28;20730;-59
2024/02/29 06:09:52;;;;;;;25.47;11.43;;;-0.90;99.90;;;;;;5030374;28;20191;-58
2024/02/29 06:12:18;;;;;;;27.20;11.90;;;-0.80;99.90;;;;;;5038454;28;20222;-58
2024/02/29 06:14:44;;;;;;;26.80;11.97;;;-0.80;99.90;;;;;;5038907;28;20183;-57
2024/02/29 06:17:10;;;;;;;26.17;11.07;;;-0.70;99.90;;;;;;5038876;28;20189;-54
2024/02/29 06:19:38;;;;;;;28.43;11.47;;;-0.70;99.90;;;;;;5045390;28;20265;-57
2024/02/29 06:22:07;;;;;;;26.97;11.37;;;-0.70;99.90;;;;;;5045841;28;20214;-57
2024/02/29 06:24:33;;;;;;;26.37;11.43;;;-0.70;99.90;;;;;;5037014;28;20634;-54
2024/02/29 06:26:59;;;;;;;24.87;11.17;;;-0.70;99.90;;;;;;5036742;28;20256;-59
2024/02/29 06:29:25;;;;;;;26.87;10.70;;;-0.60;99.90;;;;;;5039040;28;20686;-57
2024/02/29 06:31:51;;;;;;;34.23;13.30;;;-0.60;99.90;;;;;;5046614;28;20206;-59
2024/02/29 06:34:18;;;;;;;32.53;14.70;;;-0.50;99.90;;;;;;5031174;28;20208;-59
2024/02/29 06:36:44;;;;;;;36.70;16.17;;;-0.60;99.90;;;;;;5043133;28;20218;-58
2024/02/29 06:39:10;;;;;;;37.87;14.27;;;-0.50;99.90;;;;;;5040808;28;20210;-58
2024/02/29 06:41:36;;;;;;;32.13;12.67;;;-0.50;99.90;;;;;;5036718;28;20214;-54
2024/02/29 06:44:05;;;;;;;35.77;12.67;;;-0.40;99.90;;;;;;5037065;28;20195;-57
2024/02/29 06:46:30;;;;;;;32.10;12.97;;;-0.40;99.90;;;;;;5040859;28;20183;-56
2024/02/29 06:48:56;;;;;;;29.10;12.40;;;-0.40;99.90;;;;;;5033443;28;20198;-57
2024/02/29 06:51:21;;;;;;;33.53;13.20;;;-0.30;99.90;;;;;;5048377;28;20495;-56
2024/02/29 06:53:47;;;;;;;34.17;13.40;;;-0.20;99.90;;;;;;5040676;28;20214;-58
2024/02/29 06:56:12;;;;;;;31.60;11.67;;;-0.20;99.90;;;;;;5042096;28;20195;-58
2024/02/29 06:58:38;;;;;;;35.10;13.13;;;-0.10;99.90;;;;;;5037510;28;20210;-55
2024/02/29 07:01:04;;;;;;;34.23;13.17;;;0.00;99.90;;;;;;5037981;28;20664;-54
2024/02/29 07:03:30;;;;;;;33.80;13.33;;;0.00;99.90;;;;;;5036538;28;20710;-57
2024/02/29 07:05:55;;;;;;;38.07;14.80;;;0.10;99.90;;;;;;5037754;28;20179;-54
2024/02/29 07:08:21;;;;;;;35.83;13.27;;;0.10;99.90;;;;;;5037149;28;20228;-57
2024/02/29 07:10:48;;;;;;;38.13;13.90;;;0.20;99.90;;;;;;5039733;28;20192;-57
2024/02/29 07:13:13;;;;;;;40.20;13.73;;;0.10;99.90;;;;;;5037062;28;20223;-55
2024/02/29 07:15:39;;;;;;;38.17;14.10;;;0.20;99.90;;;;;;5036554;28;20189;-55
2024/02/29 07:18:06;;;;;;;48.93;13.27;;;0.20;99.90;;;;;;5031074;28;20546;-54
2024/02/29 07:20:31;;;;;;;38.43;13.57;;;0.20;99.90;;;;;;5048775;28;20543;-55
2024/02/29 07:23:02;;;;;;;36.23;13.90;;;0.40;99.90;;;;;;5033190;28;20199;-54
2024/02/29 07:25:28;;;;;;;36.47;13.13;;;0.50;99.90;;;;;;5039741;28;20197;-56
2024/02/29 07:27:55;;;;;;;42.57;15.83;;;0.60;99.90;;;;;;5043243;28;20191;-55
2024/02/29 07:30:21;;;;;;;43.83;15.13;;;0.70;99.90;;;;;;5032260;28;20187;-54
2024/02/29 07:32:46;;;;;;;38.60;14.97;;;0.70;99.90;;;;;;5038757;28;20364;-56
2024/02/29 07:35:17;;;;;;;41.27;15.47;;;0.80;99.90;;;;;;5034785;28;20724;-57
2024/02/29 07:37:44;;;;;;;34.83;13.37;;;0.60;99.90;;;;;;5034458;28;20188;-56
2024/02/29 07:40:09;;;;;;;43.63;15.10;;;0.80;99.90;;;;;;5036608;28;20576;-57
2024/02/29 07:42:37;;;;;;;38.00;15.13;;;0.90;99.90;;;;;;5032971;28;20294;-56
2024/02/29 07:45:05;;;;;;;39.63;15.60;;;1.10;99.90;;;;;;5040629;28;20195;-58
2024/02/29 07:47:30;;;;;;;42.23;15.50;;;1.10;99.90;;;;;;5028833;28;20196;-56
2024/02/29 07:49:56;;;;;;;40.03;15.70;;;1.20;99.90;;;;;;5028843;28;20184;-56
2024/02/29 07:52:21;;;;;;;49.50;17.93;;;1.30;99.90;;;;;;5030672;28;20223;-58
2024/02/29 07:54:48;;;;;;;40.87;16.57;;;1.50;99.90;;;;;;5034125;28;20183;-56
2024/02/29 07:57:13;;;;;;;41.90;16.00;;;1.60;99.90;;;;;;5044626;28;20214;-56
2024/02/29 07:59:39;;;;;;;41.30;17.17;;;1.70;99.90;;;;;;5036819;28;20648;-54
2024/02/29 08:02:05;;;;;;;41.47;15.27;;;1.90;99.90;;;;;;5036450;28;20205;-55
2024/02/29 08:04:32;;;;;;;42.20;16.30;;;2.00;99.90;;;;;;5040084;28;20611;-59
2024/02/29 08:06:57;;;;;;;41.10;16.70;;;2.00;99.90;;;;;;5040442;28;20491;-58
2024/02/29 08:09:26;;;;;;;38.60;17.33;;;2.20;99.90;;;;;;5027801;28;20192;-54
2024/02/29 08:11:51;;;;;;;37.20;15.60;;;2.50;99.90;;;;;;5029880;28;20215;-58
2024/02/29 08:14:17;;;;;;;44.23;17.43;;;2.60;99.90;;;;;;5038256;28;20798;-58
2024/02/29 08:16:43;;;;;;;41.70;17.80;;;2.80;99.90;;;;;;5037656;28;20518;-57
2024/02/29 08:19:08;;;;;;;40.63;16.93;;;2.90;99.90;;;;;;5030730;28;20279;-57
2024/02/29 08:21:34;;;;;;;51.43;20.63;;;3.50;99.90;;;;;;5036477;28;20180;-55
2024/02/29 08:24:00;;;;;;;37.47;16.33;;;4.10;99.90;;;;;;5035323;28;20203;-57
2024/02/29 08:26:25;;;;;;;33.07;14.90;;;4.90;99.90;;;;;;5038783;28;20192;-58
2024/02/29 08:28:51;;;;;;;34.70;15.07;;;5.50;99.90;;;;;;5038507;28;20308;-58
2024/02/29 08:31:17;;;;;;;43.40;16.83;;;6.00;99.90;;;;;;5041196;28;20190;-58
2024/02/29 08:33:42;;;;;;;35.60;16.57;;;6.40;99.90;;;;;;5039518;28;20305;-54
2024/02/29 08:36:10;;;;;;;43.13;20.70;;;6.50;99.90;;;;;;5034112;28;20188;-54
2024/02/29 08:38:37;;;;;;;40.60;18.27;;;6.70;99.90;;;;;;5031316;28;20632;-57
2024/02/29 08:41:04;;;;;;;39.47;18.40;;;6.80;99.90;;;;;;5031543;28;20180;-53
2024/02/29 08:43:30;;;;;;;57.40;26.00;;;7.00;99.90;;;;;;5018985;28;20218;-53
2024/02/29 08:45:56;;;;;;;45.37;18.23;;;7.20;99.90;;;;;;5027894;28;20217;-57
2024/02/29 08:48:21;;;;;;;38.17;16.87;;;7.30;99.90;;;;;;5031804;28;20187;-56
2024/02/29 08:50:47;;;;;;;37.80;16.03;;;7.50;99.90;;;;;;5031230;28;20184;-56
2024/02/29 08:53:13;;;;;;;36.70;15.70;;;8.10;99.90;;;;;;5030849;28;20751;-57
2024/02/29 08:55:38;;;;;;;32.40;14.83;;;8.50;99.90;;;;;;5031422;28;20387;-54
2024/02/29 08:58:05;;;;;;;56.60;18.57;;;;;;;;;;5038857;28;20187;-58
2024/02/29 09:00:30;;;;;;;31.67;14.87;;;;;;;;;;5047646;28;20203;-56
2024/02/29 09:02:56;;;;;;;36.87;14.73;;;;;;;;;;5034708;28;20253;-56
2024/02/29 09:05:23;;;;;;;31.13;13.73;;;;;;;;;;5034955;28;20628;-58
2024/02/29 09:07:49;;;;;;;33.83;14.57;;;8.90;99.90;;;;;;5040441;28;20262;-57
2024/02/29 09:10:15;;;;;;;29.57;13.93;;;10.80;99.90;;;;;;5042499;28;20309;-58
2024/02/29 09:12:41;;;;;;;32.93;14.33;;;11.00;99.90;;;;;;5042597;28;20293;-58
2024/02/29 09:15:07;;;;;;;29.00;13.27;;;11.00;99.90;;;;;;5047383;28;20628;-59
2024/02/29 09:17:33;;;;;;;33.07;14.63;;;11.30;99.90;;;;;;5033974;28;20233;-57
2024/02/29 09:19:59;;;;;;;30.43;14.73;;;11.70;99.90;;;;;;5042151;28;20187;-59
2024/02/29 09:22:25;;;;;;;27.27;14.10;;;11.70;99.90;;;;;;5033296;28;20847;-60
2024/02/29 09:24:50;;;;;;;30.80;15.50;;;11.90;99.90;;;;;;5032518;28;20194;-56
2024/02/29 09:27:16;;;;;;;35.87;15.23;;;12.00;99.90;;;;;;5040482;28;20184;-58
2024/02/29 09:29:42;;;;;;;36.23;15.70;;;11.90;99.90;;;;;;5030889;28;20566;-58
2024/02/29 09:32:07;;;;;;;36.33;16.00;;;11.90;99.90;;;;;;5038556;28;20266;-58
2024/02/29 09:34:37;;;;;;;32.33;15.00;;;12.30;99.90;;;;;;5036835;28;20188;-57
2024/02/29 09:37:03;;;;;;;37.50;15.80;;;12.50;99.90;;;;;;5044178;28;20171;-57
2024/02/29 09:39:29;;;;;;;39.20;15.40;;;11.80;99.90;;;;;;5036545;28;20183;-59
2024/02/29 09:41:55;;;;;;;32.33;15.07;;;11.60;99.90;;;;;;5028502;28;20184;-59
2024/02/29 09:44:21;;;;;;;34.87;15.07;;;11.60;99.90;;;;;;5037010;28;20199;-59
2024/02/29 09:46:50;;;;;;;29.93;14.03;;;11.70;99.90;;;;;;5037043;28;20188;-57
2024/02/29 09:49:16;;;;;;;32.43;14.13;;;11.40;99.90;;;;;;5037692;28;20222;-59
2024/02/29 09:51:43;;;;;;;30.83;14.43;;;11.20;99.90;;;;;;5025705;28;20191;-57
2024/02/29 09:54:19;;;;;;;31.03;13.70;;;11.40;99.90;;;;;;5032555;28;20290;-60
2024/02/29 09:56:46;;;;;;;30.57;14.63;;;11.30;99.90;;;;;;5038647;28;20186;-56
2024/02/29 09:59:15;;;;;;;31.63;14.90;;;11.50;99.90;;;;;;5030730;28;20643;-57
2024/02/29 10:01:44;;;;;;;28.20;14.73;;;11.70;99.90;;;;;;5037140;28;20568;-59
2024/02/29 10:04:10;;;;;;;35.37;16.23;;;11.60;99.90;;;;;;5030496;28;20242;-59
2024/02/29 10:06:35;;;;;;;34.23;14.60;;;11.50;99.90;;;;;;5037578;28;20199;-58
2024/02/29 10:09:01;;;;;;;33.33;15.57;;;11.70;99.90;;;;;;5029229;28;20203;-56
2024/02/29 10:11:28;;;;;;;33.53;15.00;;;11.70;99.90;;;;;;5030482;28;20260;-58
2024/02/29 10:13:53;;;;;;;34.40;14.77;;;11.50;99.90;;;;;;5029650;28;20302;-57
2024/02/29 10:16:19;;;;;;;29.17;15.30;;;11.90;99.90;;;;;;5029796;28;20282;-55
2024/02/29 10:18:44;;;;;;;32.23;14.27;;;12.10;99.90;;;;;;5029124;28;20183;-57
2024/02/29 10:21:11;;;;;;;29.73;14.30;;;12.00;99.90;;;;;;5037693;28;20194;-59
2024/02/29 10:23:40;;;;;;;29.43;14.83;;;11.80;99.90;;;;;;5029586;28;20218;-57
2024/02/29 10:26:06;;;;;;;34.00;14.97;;;11.80;99.90;;;;;;5029013;28;20244;-56
2024/02/29 10:28:32;;;;;;;37.20;14.70;;;11.90;99.90;;;;;;5039765;28;20194;-58
2024/02/29 10:30:58;;;;;;;34.53;15.17;;;12.30;99.90;;;;;;5034298;28;20192;-58
2024/02/29 10:33:28;;;;;;;34.47;16.57;;;12.30;99.90;;;;;;5037396;28;20270;-57
2024/02/29 10:35:54;;;;;;;31.33;14.63;;;12.30;99.90;;;;;;5035413;28;20187;-59
2024/02/29 10:38:21;;;;;;;29.13;14.80;;;12.10;99.90;;;;;;5048275;28;20233;-57
2024/02/29 10:40:51;;;;;;;32.67;14.60;;;12.10;99.90;;;;;;5040802;28;20179;-56
2024/02/29 10:43:20;;;;;;;34.20;14.87;;;12.40;99.90;;;;;;5048680;28;20234;-57
2024/02/29 10:45:49;;;;;;;30.70;14.73;;;12.40;99.90;;;;;;5043484;28;20184;-57
2024/02/29 10:48:48;;;;;;;32.77;15.17;;;12.60;99.90;;;;;;5028394;28;20190;-58
2024/02/29 10:51:39;;;;;;;30.40;14.97;;;12.70;99.90;;;;;;5036541;28;20187;-55
2024/02/29 10:54:22;;;;;;;29.27;13.80;;;12.40;99.90;;;;;;5028544;28;20650;-58
2024/02/29 10:56:51;;;;;;;30.50;14.83;;;12.60;99.90;;;;;;5037081;28;20896;-57
2024/02/29 10:59:19;;;;;;;29.77;14.03;;;12.60;99.90;;;;;;5037948;28;20202;-59
2024/02/29 11:01:45;;;;;;;30.30;14.23;;;12.60;99.90;;;;;;5043392;28;20710;-56
2024/02/29 11:04:11;;;;;;;30.87;13.93;;;12.70;99.90;;;;;;5036731;28;20263;-55
2024/02/29 11:06:38;;;;;;;31.10;14.93;;;12.90;99.90;;;;;;5028252;28;20275;-59
2024/02/29 11:09:08;;;;;;;32.00;14.47;;;12.90;99.90;;;;;;5036172;28;20196;-55
2024/02/29 11:11:34;;;;;;;29.63;15.23;;;12.90;99.90;;;;;;5031553;28;20183;-58
2024/02/29 11:14:05;;;;;;;31.97;14.70;;;12.80;99.90;;;;;;5032429;28;20482;-60
2024/02/29 11:16:47;;;;;;;32.13;15.47;;;12.90;99.90;;;;;;5028354;28;20199;-58
2024/02/29 11:19:17;;;;;;;36.63;14.00;;;13.00;99.90;;;;;;5036380;28;20572;-60
2024/02/29 11:21:46;;;;;;;30.37;14.03;;;13.20;99.90;;;;;;5028694;28;20404;-58
2024/02/29 11:24:22;;;;;;;31.77;13.80;;;13.20;99.90;;;;;;5027521;28;20333;-60
2024/02/29 11:26:55;;;;;;;27.53;13.70;;;13.10;99.90;;;;;;5028700;28;20214;-60
2024/02/29 11:29:22;;;;;;;29.10;13.17;;;13.20;99.90;;;;;;5027993;28;20186;-59
2024/02/29 11:31:55;;;;;;;29.10;14.00;;;13.40;99.90;;;;;;5028565;28;20660;-58
2024/02/29 11:34:21;;;;;;;23.37;11.97;;;13.50;99.90;;;;;;5028517;28;20188;-59
2024/02/29 11:36:48;;;;;;;25.23;12.40;;;13.80;99.90;;;;;;5028690;28;20184;-58
2024/02/29 11:39:20;;;;;;;26.07;12.57;;;13.70;99.90;;;;;;5027643;28;20725;-63
2024/02/29 11:41:47;;;;;;;29.38;14.93;;;13.70;99.90;;;;;;5027994;28;20777;-58
2024/02/29 11:44:12;;;;;;;27.53;12.90;;;13.50;99.90;;;;;;5028432;28;20199;-60
2024/02/29 11:46:49;;;;;;;24.37;12.47;;;12.70;99.90;;;;;;5028497;28;20184;-60
2024/02/29 11:49:20;;;;;;;26.17;14.00;;;12.50;99.90;;;;;;5027132;28;20436;-58
2024/02/29 11:51:47;;;;;;;23.93;12.80;;;12.70;99.90;;;;;;5029273;28;20176;-62
2024/02/29 11:54:14;;;;;;;25.83;12.30;;;12.90;99.90;;;;;;5029850;28;20676;-58
2024/02/29 11:56:40;;;;;;;24.97;12.20;;;13.40;99.90;;;;;;5030255;28;20624;-61
2024/02/29 11:59:09;;;;;;;24.50;12.10;;;13.60;99.90;;;;;;5029573;28;20184;-59
2024/02/29 12:01:35;;;;;;;24.67;11.57;;;13.90;99.90;;;;;;5029886;28;20196;-61
2024/02/29 12:04:01;;;;;;;24.13;10.77;;;14.00;99.90;;;;;;5031660;28;20203;-57
2024/02/29 12:06:26;;;;;;;20.17;10.17;;;14.10;99.90;;;;;;5033802;28;20188;-59
2024/02/29 12:08:53;;;;;;;21.00;10.07;;;14.30;99.90;;;;;;5033059;28;20187;-58
2024/02/29 12:11:20;;;;;;;20.03;10.13;;;14.30;99.90;;;;;;5035000;28;20260;-58
2024/02/29 12:13:46;;;;;;;20.80;9.40;;;14.60;99.90;;;;;;5039723;28;20230;-57
2024/02/29 12:16:12;;;;;;;22.40;9.60;;;14.90;99.90;;;;;;5040478;28;20190;-56
2024/02/29 12:18:37;;;;;;;16.30;8.60;;;15.20;99.90;;;;;;5043457;28;20254;-54
2024/02/29 12:21:04;;;;;;;17.20;8.43;;;15.40;99.90;;;;;;5034711;28;20184;-53
2024/02/29 12:23:31;;;;;;;18.67;8.80;;;15.50;99.90;;;;;;5032959;28;20198;-53
2024/02/29 12:26:11;;;;;;;18.57;8.47;;;15.00;99.90;;;;;;5035048;28;20184;-56
2024/02/29 12:28:38;;;;;;;20.23;9.40;;;15.00;99.90;;;;;;5033877;28;20210;-54